Time;durP1;ratioP1;P1;durP2;ratioP2;P2;SDS_P1;SDS_P2;PMS_P1;PMS_P2;Temp;Humidity;BMP_temperature;BMP_pressure;BME280_temperature;BME280_humidity;BME280_pressure;Samples;Min_cycle;Max_cycle;Signal;HPM_P1;HPM_P2
2023/11/03 00:02:08;;;;;;;0.68;0.10;;;8.20;99.90;;;;;;5080573;28;20044;-68
2023/11/03 00:04:36;;;;;;;1.17;0.10;;;8.10;99.90;;;;;;5066986;28;20510;-68
2023/11/03 00:07:06;;;;;;;1.00;0.10;;;8.20;99.90;;;;;;5066375;28;20043;-68
2023/11/03 00:09:37;;;;;;;1.40;0.20;;;8.20;99.90;;;;;;5065009;28;20094;-68
2023/11/03 00:12:06;;;;;;;0.70;0.10;;;8.30;99.90;;;;;;5068116;28;20036;-68
2023/11/03 00:14:32;;;;;;;0.43;0.20;;;8.30;99.90;;;;;;5068165;28;20036;-68
2023/11/03 00:16:57;;;;;;;1.05;0.52;;;8.20;99.90;;;;;;5068126;28;20097;-68
2023/11/03 00:19:27;;;;;;;3.08;0.10;;;8.20;99.90;;;;;;5065592;28;20051;-68
2023/11/03 00:21:53;;;;;;;1.27;0.30;;;8.50;99.90;;;;;;5069160;28;20036;-68
2023/11/03 00:24:19;;;;;;;1.08;0.17;;;8.30;99.90;;;;;;5068622;28;20075;-68
2023/11/03 00:26:45;;;;;;;1.70;0.20;;;8.30;99.90;;;;;;5068179;28;20090;-68
2023/11/03 00:29:11;;;;;;;0.45;0.20;;;8.30;99.90;;;;;;5063768;28;20432;-69
2023/11/03 00:31:45;;;;;;;1.45;0.60;;;8.30;99.90;;;;;;5071124;28;20031;-68
2023/11/03 00:34:10;;;;;;;0.73;0.22;;;8.30;99.90;;;;;;5097295;28;20048;-68
2023/11/03 00:36:38;;;;;;;2.03;0.30;;;8.30;99.90;;;;;;5064076;28;20368;-68
2023/11/03 00:39:04;;;;;;;0.80;0.30;;;8.40;99.90;;;;;;5064001;28;20055;-68
2023/11/03 00:41:30;;;;;;;1.67;0.32;;;8.40;99.90;;;;;;5060189;28;20029;-68
2023/11/03 00:43:55;;;;;;;1.05;0.30;;;8.50;99.90;;;;;;5068161;28;20183;-68
2023/11/03 00:46:21;;;;;;;2.10;0.40;;;8.50;99.90;;;;;;5066803;28;20044;-68
2023/11/03 00:48:46;;;;;;;0.40;0.30;;;8.50;99.90;;;;;;5066710;28;20053;-68
2023/11/03 00:51:12;;;;;;;2.22;0.70;;;8.50;99.90;;;;;;5070475;28;20040;-68
2023/11/03 00:53:38;;;;;;;4.60;0.77;;;8.50;99.90;;;;;;5067020;28;20045;-68
2023/11/03 00:56:04;;;;;;;1.70;0.50;;;8.50;99.90;;;;;;5066568;28;20517;-68
2023/11/03 00:58:30;;;;;;;2.17;0.50;;;8.60;99.90;;;;;;5067013;28;20043;-68
2023/11/03 01:00:56;;;;;;;0.98;0.50;;;8.60;99.90;;;;;;5066708;28;20051;-68
2023/11/03 01:03:23;;;;;;;1.02;0.38;;;8.60;99.90;;;;;;5064473;28;20552;-68
2023/11/03 01:05:49;;;;;;;2.15;0.90;;;8.60;99.90;;;;;;5083261;28;20056;-68
2023/11/03 01:08:15;;;;;;;1.13;0.45;;;8.60;99.90;;;;;;5067488;28;20040;-68
2023/11/03 01:10:41;;;;;;;3.65;0.70;;;8.70;99.90;;;;;;5066329;28;20082;-68
2023/11/03 01:13:10;;;;;;;3.78;0.50;;;8.70;99.90;;;;;;5061653;28;20071;-68
2023/11/03 01:15:38;;;;;;;3.97;0.52;;;8.70;99.90;;;;;;5065961;28;20086;-68
2023/11/03 01:18:05;;;;;;;0.73;0.57;;;8.70;99.90;;;;;;5068595;28;20055;-68
2023/11/03 01:20:31;;;;;;;3.25;0.88;;;8.70;99.90;;;;;;5064307;28;20056;-68
2023/11/03 01:23:00;;;;;;;2.28;0.40;;;8.80;99.90;;;;;;5051057;28;20036;-68
2023/11/03 01:25:26;;;;;;;0.90;0.30;;;8.70;99.90;;;;;;5068130;28;20398;-68
2023/11/03 01:27:53;;;;;;;2.30;0.40;;;8.70;99.90;;;;;;5067570;28;20426;-68
2023/11/03 01:30:20;;;;;;;2.17;0.50;;;8.80;99.90;;;;;;5064586;28;20125;-68
2023/11/03 01:32:46;;;;;;;1.83;0.40;;;8.80;99.90;;;;;;5064680;28;20047;-68
2023/11/03 01:35:12;;;;;;;3.08;0.50;;;8.70;99.90;;;;;;5065342;28;20368;-68
2023/11/03 01:37:39;;;;;;;1.73;0.40;;;8.90;99.90;;;;;;5067702;28;20057;-69
2023/11/03 01:40:08;;;;;;;1.63;0.40;;;8.70;99.90;;;;;;5065774;28;20056;-68
2023/11/03 01:42:37;;;;;;;1.92;0.40;;;8.70;99.90;;;;;;5066623;28;20052;-68
2023/11/03 01:45:04;;;;;;;3.10;0.50;;;8.70;99.90;;;;;;5064506;28;20049;-68
2023/11/03 01:47:31;;;;;;;2.67;0.60;;;8.70;99.90;;;;;;5061830;28;20502;-68
2023/11/03 01:49:57;;;;;;;2.35;0.75;;;8.70;99.90;;;;;;5066749;28;20048;-68
2023/11/03 01:52:24;;;;;;;1.90;0.40;;;8.70;99.90;;;;;;5064501;28;20036;-68
2023/11/03 01:54:50;;;;;;;3.00;0.28;;;8.70;99.90;;;;;;5068095;28;20393;-68
2023/11/03 01:57:18;;;;;;;0.68;0.30;;;8.70;99.90;;;;;;5066951;28;20046;-68
2023/11/03 01:59:46;;;;;;;1.65;0.40;;;8.70;99.90;;;;;;5066496;28;20386;-68
2023/11/03 02:02:13;;;;;;;2.13;0.38;;;8.70;99.90;;;;;;5065941;28;20044;-68
2023/11/03 02:04:38;;;;;;;1.42;0.30;;;8.70;99.90;;;;;;5067118;28;20502;-68
2023/11/03 02:07:04;;;;;;;1.48;0.43;;;8.70;99.90;;;;;;5065751;28;20054;-68
2023/11/03 02:09:30;;;;;;;2.90;0.38;;;8.70;99.90;;;;;;5095444;28;20039;-68
2023/11/03 02:11:55;;;;;;;2.40;0.35;;;8.70;99.90;;;;;;5065369;28;20037;-69
2023/11/03 02:14:22;;;;;;;3.58;0.55;;;8.60;99.90;;;;;;5067564;28;20050;-68
2023/11/03 02:16:47;;;;;;;0.75;0.20;;;8.70;99.90;;;;;;5069463;28;20126;-68
2023/11/03 02:19:13;;;;;;;1.13;0.30;;;8.90;99.90;;;;;;5067185;28;20056;-68
2023/11/03 02:21:41;;;;;;;1.33;0.40;;;8.70;99.90;;;;;;5072074;28;20072;-68
2023/11/03 02:24:08;;;;;;;0.90;0.20;;;8.80;99.90;;;;;;5071673;28;20454;-68
2023/11/03 02:26:34;;;;;;;0.93;0.30;;;8.70;99.90;;;;;;5070835;28;20500;-68
2023/11/03 02:29:01;;;;;;;1.98;0.45;;;8.80;99.90;;;;;;5069891;28;20064;-68
2023/11/03 02:31:26;;;;;;;1.48;0.40;;;8.70;99.90;;;;;;5066268;28;20040;-68
2023/11/03 02:33:53;;;;;;;1.48;0.20;;;8.80;99.90;;;;;;5069567;28;20051;-68
2023/11/03 02:36:18;;;;;;;4.32;0.50;;;8.80;99.90;;;;;;5069410;28;20044;-68
2023/11/03 02:38:45;;;;;;;1.38;0.40;;;8.80;99.90;;;;;;5100220;28;20036;-68
2023/11/03 02:41:10;;;;;;;1.15;0.25;;;8.80;99.90;;;;;;5069374;28;20045;-68
2023/11/03 02:43:36;;;;;;;2.25;0.20;;;8.70;99.90;;;;;;5071481;28;20035;-68
2023/11/03 02:46:02;;;;;;;1.17;0.30;;;8.80;99.90;;;;;;5101335;28;20037;-68
2023/11/03 02:48:27;;;;;;;2.55;0.93;;;8.80;99.90;;;;;;5071146;28;20063;-68
2023/11/03 02:50:53;;;;;;;3.50;0.50;;;8.80;99.90;;;;;;5068888;28;20080;-68
2023/11/03 02:53:19;;;;;;;3.33;0.47;;;8.80;99.90;;;;;;5069722;28;20036;-68
2023/11/03 02:55:45;;;;;;;1.55;0.45;;;8.80;99.90;;;;;;5070464;28;20036;-68
2023/11/03 02:58:10;;;;;;;2.45;1.05;;;8.80;99.90;;;;;;5068156;28;21517;-69
2023/11/03 03:00:36;;;;;;;3.38;0.45;;;8.80;99.90;;;;;;5067533;28;21450;-69
2023/11/03 03:03:04;;;;;;;1.77;0.30;;;8.80;99.90;;;;;;5067047;28;20032;-68
2023/11/03 03:05:30;;;;;;;3.00;0.30;;;8.80;99.90;;;;;;5066397;28;20076;-68
2023/11/03 03:07:55;;;;;;;2.75;0.40;;;8.80;99.90;;;;;;5068486;28;20092;-68
2023/11/03 03:10:21;;;;;;;1.17;0.25;;;8.80;99.90;;;;;;5069309;28;20055;-68
2023/11/03 03:12:47;;;;;;;1.02;0.30;;;8.80;99.90;;;;;;5068607;28;20554;-68
2023/11/03 03:15:13;;;;;;;1.23;0.43;;;8.80;99.90;;;;;;5067382;28;20040;-68
2023/11/03 03:17:39;;;;;;;1.60;0.40;;;8.80;99.90;;;;;;5070593;28;20070;-68
2023/11/03 03:20:06;;;;;;;2.35;0.57;;;8.80;99.90;;;;;;5098532;28;20434;-69
2023/11/03 03:22:32;;;;;;;1.33;0.40;;;8.80;99.90;;;;;;5063151;28;20119;-68
2023/11/03 03:24:57;;;;;;;2.15;0.68;;;8.90;99.90;;;;;;5069080;28;20056;-68
2023/11/03 03:27:23;;;;;;;1.52;0.30;;;8.90;99.90;;;;;;5066804;28;20529;-68
2023/11/03 03:29:48;;;;;;;2.53;0.40;;;8.90;99.90;;;;;;5067187;28;20159;-68
2023/11/03 03:32:14;;;;;;;1.58;0.40;;;9.00;99.90;;;;;;5067466;28;20094;-68
2023/11/03 03:34:40;;;;;;;6.50;0.50;;;9.00;99.90;;;;;;5070956;28;20082;-68
2023/11/03 03:37:05;;;;;;;2.67;0.32;;;9.00;99.90;;;;;;5066846;28;20163;-69
2023/11/03 03:39:31;;;;;;;1.13;0.28;;;9.00;99.90;;;;;;5065770;28;20040;-68
2023/11/03 03:41:57;;;;;;;1.60;0.80;;;9.00;99.90;;;;;;5069021;28;20041;-68
2023/11/03 03:44:22;;;;;;;3.95;0.35;;;9.00;99.90;;;;;;5066234;28;20036;-68
2023/11/03 03:46:48;;;;;;;2.38;0.40;;;9.00;99.90;;;;;;5067957;28;20033;-68
2023/11/03 03:49:14;;;;;;;2.58;0.43;;;9.10;99.90;;;;;;5069489;28;20044;-69
2023/11/03 03:51:39;;;;;;;3.90;0.40;;;9.10;99.90;;;;;;5068363;28;20044;-68
2023/11/03 03:54:05;;;;;;;2.42;0.30;;;9.10;99.90;;;;;;5067503;28;20060;-68
2023/11/03 03:56:31;;;;;;;2.42;0.40;;;9.10;99.90;;;;;;5065577;28;20036;-68
2023/11/03 03:58:57;;;;;;;2.40;0.40;;;9.20;99.90;;;;;;5050311;28;20044;-68
2023/11/03 04:01:23;;;;;;;4.10;0.90;;;9.30;99.90;;;;;;5068640;28;20102;-69
2023/11/03 04:03:49;;;;;;;3.60;0.40;;;9.10;99.90;;;;;;5067894;28;20043;-68
2023/11/03 04:06:14;;;;;;;2.30;0.32;;;9.10;99.90;;;;;;5068503;28;20052;-68
2023/11/03 04:08:40;;;;;;;1.77;0.45;;;9.10;99.90;;;;;;5067552;28;20041;-68
2023/11/03 04:11:05;;;;;;;1.13;0.32;;;9.10;99.90;;;;;;5069234;28;20040;-68
2023/11/03 04:13:32;;;;;;;3.53;0.50;;;9.10;99.90;;;;;;5068308;28;20127;-69
2023/11/03 04:15:58;;;;;;;0.70;0.32;;;9.20;99.90;;;;;;5063238;28;20513;-68
2023/11/03 04:18:23;;;;;;;0.63;0.25;;;9.20;99.90;;;;;;5067980;28;20070;-68
2023/11/03 04:20:49;;;;;;;4.30;0.55;;;9.10;99.90;;;;;;5067433;28;20062;-68
2023/11/03 04:23:15;;;;;;;2.10;0.30;;;9.20;99.90;;;;;;5046840;28;20131;-68
2023/11/03 04:25:41;;;;;;;3.97;0.60;;;9.20;99.90;;;;;;5064139;28;20036;-68
2023/11/03 04:28:08;;;;;;;1.65;0.50;;;9.20;99.90;;;;;;5080937;28;20525;-68
2023/11/03 04:30:34;;;;;;;3.17;0.50;;;9.20;99.90;;;;;;5067376;28;20041;-68
2023/11/03 04:33:00;;;;;;;1.50;0.50;;;9.20;99.90;;;;;;5069065;28;20514;-68
2023/11/03 04:35:26;;;;;;;0.75;0.30;;;9.20;99.90;;;;;;5066686;28;20036;-68
2023/11/03 04:37:52;;;;;;;1.60;0.50;;;9.20;99.90;;;;;;5065895;28;20044;-68
2023/11/03 04:40:21;;;;;;;6.28;0.60;;;9.20;99.90;;;;;;5066486;28;20059;-68
2023/11/03 04:42:47;;;;;;;3.22;0.50;;;9.20;99.90;;;;;;5066822;28;20041;-68
2023/11/03 04:45:15;;;;;;;4.38;0.40;;;9.20;99.90;;;;;;5067014;28;20044;-68
2023/11/03 04:47:40;;;;;;;3.13;0.47;;;9.20;99.90;;;;;;5065645;28;20078;-69
2023/11/03 04:50:06;;;;;;;2.28;0.60;;;9.20;99.90;;;;;;5064355;28;20063;-69
2023/11/03 04:52:34;;;;;;;2.10;0.40;;;9.20;99.90;;;;;;5066385;28;20039;-68
2023/11/03 04:55:00;;;;;;;1.48;0.40;;;9.20;99.90;;;;;;5067843;28;20048;-68
2023/11/03 04:57:25;;;;;;;3.25;0.40;;;9.20;99.90;;;;;;5066786;28;20620;-69
2023/11/03 04:59:51;;;;;;;3.55;0.40;;;9.10;99.90;;;;;;5065279;28;20463;-69
2023/11/03 05:02:17;;;;;;;2.08;0.50;;;9.10;99.90;;;;;;5065743;28;20040;-69
2023/11/03 05:04:43;;;;;;;1.65;0.40;;;9.10;99.90;;;;;;5060749;28;20094;-69
2023/11/03 05:07:09;;;;;;;3.10;0.40;;;9.10;99.90;;;;;;5063987;28;20044;-68
2023/11/03 05:09:36;;;;;;;2.47;0.60;;;9.10;99.90;;;;;;5064765;28;20024;-68
2023/11/03 05:12:03;;;;;;;1.77;0.30;;;9.10;99.90;;;;;;5060043;28;20083;-68
2023/11/03 05:14:30;;;;;;;2.70;0.30;;;9.20;99.90;;;;;;5093869;28;20036;-69
2023/11/03 05:16:55;;;;;;;2.60;0.38;;;9.20;99.90;;;;;;5097370;28;20418;-68
2023/11/03 05:19:21;;;;;;;1.35;0.30;;;9.20;99.90;;;;;;5066633;28;20032;-68
2023/11/03 05:21:48;;;;;;;2.20;0.30;;;9.20;99.90;;;;;;5067897;28;20028;-68
2023/11/03 05:24:14;;;;;;;1.23;0.22;;;9.20;99.90;;;;;;5065458;28;20320;-69
2023/11/03 05:26:41;;;;;;;1.42;0.25;;;9.30;99.90;;;;;;5062915;28;20161;-68
2023/11/03 05:29:08;;;;;;;3.67;0.20;;;9.30;99.90;;;;;;5059996;28;20036;-68
2023/11/03 05:31:33;;;;;;;1.73;0.40;;;9.30;99.90;;;;;;5047963;28;20654;-68
2023/11/03 05:34:02;;;;;;;2.60;0.43;;;9.30;99.90;;;;;;5081191;28;20044;-68
2023/11/03 05:36:28;;;;;;;1.45;0.30;;;9.30;99.90;;;;;;5046929;28;20052;-68
2023/11/03 05:38:53;;;;;;;0.90;0.28;;;9.30;99.90;;;;;;5048343;28;20060;-69
2023/11/03 05:41:19;;;;;;;1.20;0.47;;;9.30;99.90;;;;;;5066871;28;20025;-68
2023/11/03 05:43:45;;;;;;;1.27;0.22;;;9.30;99.90;;;;;;5065906;28;20051;-68
2023/11/03 05:46:10;;;;;;;1.90;0.22;;;9.30;99.90;;;;;;5099048;28;20467;-68
2023/11/03 05:48:36;;;;;;;1.65;0.40;;;9.30;99.90;;;;;;5063000;28;20143;-68
2023/11/03 05:51:03;;;;;;;1.15;0.30;;;9.30;99.90;;;;;;5066050;28;20391;-68
2023/11/03 05:53:30;;;;;;;1.83;0.40;;;9.20;99.90;;;;;;5079755;28;20490;-68
2023/11/03 05:55:56;;;;;;;2.88;0.38;;;9.20;99.90;;;;;;5062214;28;20040;-68
2023/11/03 05:58:22;;;;;;;1.15;0.25;;;9.30;99.90;;;;;;5061924;28;20406;-68
2023/11/03 06:00:47;;;;;;;2.33;0.52;;;9.30;99.90;;;;;;5062967;28;20142;-68
2023/11/03 06:03:13;;;;;;;3.80;0.60;;;9.30;99.90;;;;;;5064112;28;20511;-68
2023/11/03 06:05:39;;;;;;;0.85;0.40;;;9.30;99.90;;;;;;5066360;28;20048;-68
2023/11/03 06:08:05;;;;;;;2.22;0.30;;;9.20;99.90;;;;;;5065702;28;20058;-68
2023/11/03 06:10:31;;;;;;;2.95;0.40;;;9.20;99.90;;;;;;5062216;28;20037;-68
2023/11/03 06:12:56;;;;;;;2.03;0.30;;;9.20;99.90;;;;;;5061909;28;20119;-68
2023/11/03 06:15:22;;;;;;;3.10;0.50;;;9.20;99.90;;;;;;5065840;28;20123;-68
2023/11/03 06:17:48;;;;;;;2.65;0.40;;;9.30;99.90;;;;;;5064971;28;20048;-68
2023/11/03 06:20:14;;;;;;;3.45;0.50;;;9.20;99.90;;;;;;5060844;28;20060;-68
2023/11/03 06:22:40;;;;;;;1.42;0.38;;;9.20;99.90;;;;;;5094387;28;20047;-68
2023/11/03 06:25:07;;;;;;;4.22;0.40;;;9.20;99.90;;;;;;5058233;28;20052;-68
2023/11/03 06:27:33;;;;;;;1.02;0.30;;;9.20;99.90;;;;;;5064843;28;20498;-68
2023/11/03 06:29:58;;;;;;;2.00;0.50;;;9.20;99.90;;;;;;5064467;28;20178;-68
2023/11/03 06:32:25;;;;;;;1.73;0.20;;;9.20;99.90;;;;;;5060581;28;20099;-68
2023/11/03 06:34:50;;;;;;;3.33;0.63;;;9.30;99.90;;;;;;5097787;28;20478;-68
2023/11/03 06:37:16;;;;;;;2.13;0.38;;;9.20;99.90;;;;;;5066856;28;20037;-68
2023/11/03 06:39:42;;;;;;;6.18;0.98;;;9.20;99.90;;;;;;5065496;28;20033;-68
2023/11/03 06:42:07;;;;;;;2.63;0.50;;;9.20;99.90;;;;;;5065945;28;20051;-68
2023/11/03 06:44:33;;;;;;;2.50;0.40;;;9.20;99.90;;;;;;5065036;28;20036;-68
2023/11/03 06:46:59;;;;;;;4.53;0.60;;;9.20;99.90;;;;;;5065615;28;20048;-68
2023/11/03 06:49:25;;;;;;;2.00;0.40;;;9.20;99.90;;;;;;5066663;28;20378;-68
2023/11/03 06:51:51;;;;;;;4.82;0.43;;;9.20;99.90;;;;;;5067155;28;20044;-68
2023/11/03 06:54:18;;;;;;;2.58;0.65;;;9.40;99.90;;;;;;5100088;28;20872;-68
2023/11/03 06:56:43;;;;;;;3.60;0.70;;;9.20;99.90;;;;;;5062959;28;20124;-69
2023/11/03 06:59:09;;;;;;;4.53;0.90;;;9.20;99.90;;;;;;5063544;28;20052;-69
2023/11/03 07:01:35;;;;;;;4.57;0.85;;;9.90;99.90;;;;;;5066069;28;20125;-69
2023/11/03 07:04:00;;;;;;;6.28;0.90;;;9.20;99.90;;;;;;5071303;28;20648;-69
2023/11/03 07:06:27;;;;;;;2.70;0.63;;;9.10;99.90;;;;;;5071261;28;20036;-69
2023/11/03 07:08:53;;;;;;;4.13;0.60;;;9.10;99.90;;;;;;5067226;28;20141;-68
2023/11/03 07:11:19;;;;;;;4.20;1.10;;;9.10;99.90;;;;;;5070698;28;20471;-69
2023/11/03 07:13:45;;;;;;;2.58;0.52;;;9.20;99.90;;;;;;5061848;28;20048;-68
2023/11/03 07:16:13;;;;;;;3.53;0.93;;;9.00;99.90;;;;;;5067306;28;20491;-68
2023/11/03 07:18:41;;;;;;;3.45;0.55;;;9.10;99.90;;;;;;5061667;28;20041;-69
2023/11/03 07:21:11;;;;;;;4.90;0.93;;;9.10;99.90;;;;;;5066972;28;20556;-68
2023/11/03 07:23:37;;;;;;;6.85;1.00;;;9.10;99.90;;;;;;5065351;28;20775;-69
2023/11/03 07:26:03;;;;;;;4.07;1.00;;;9.00;99.90;;;;;;5067889;28;20048;-68
2023/11/03 07:28:29;;;;;;;4.03;1.00;;;9.10;99.90;;;;;;5069964;28;20462;-68
2023/11/03 07:30:55;;;;;;;3.78;1.05;;;9.10;99.90;;;;;;5068119;28;20037;-68
2023/11/03 07:33:21;;;;;;;3.78;1.10;;;9.10;99.90;;;;;;5068148;28;20032;-68
2023/11/03 07:35:47;;;;;;;8.32;1.70;;;9.10;99.90;;;;;;5069733;28;20036;-68
2023/11/03 07:38:13;;;;;;;9.90;1.17;;;9.40;99.90;;;;;;5067957;28;20044;-68
2023/11/03 07:40:39;;;;;;;6.50;1.60;;;9.10;99.90;;;;;;5069389;28;20044;-68
2023/11/03 07:43:08;;;;;;;2.70;0.90;;;9.10;99.90;;;;;;5066809;28;20037;-68
2023/11/03 07:45:34;;;;;;;6.22;1.25;;;9.10;99.90;;;;;;5097062;28;20072;-68
2023/11/03 07:48:01;;;;;;;4.72;1.60;;;9.10;99.90;;;;;;5068200;28;20067;-68
2023/11/03 07:50:26;;;;;;;6.47;1.50;;;9.10;99.90;;;;;;5068766;28;20050;-68
2023/11/03 07:52:52;;;;;;;4.47;1.10;;;9.10;99.90;;;;;;5101541;27;20032;-68
2023/11/03 07:55:18;;;;;;;4.57;1.50;;;9.10;99.90;;;;;;5066903;28;20047;-68
2023/11/03 07:57:44;;;;;;;5.32;1.60;;;9.10;99.90;;;;;;5068883;28;20398;-68
2023/11/03 08:00:12;;;;;;;4.68;1.33;;;9.30;99.90;;;;;;5062789;28;20048;-69
2023/11/03 08:02:38;;;;;;;6.47;1.33;;;9.10;99.90;;;;;;5065196;28;20048;-68
2023/11/03 08:05:07;;;;;;;7.38;1.70;;;9.20;99.90;;;;;;5067905;28;20044;-68
2023/11/03 08:07:36;;;;;;;8.23;1.35;;;9.20;99.90;;;;;;5067712;28;20068;-68
2023/11/03 08:10:03;;;;;;;6.55;1.40;;;9.60;99.90;;;;;;5067198;28;20032;-68
2023/11/03 08:12:35;;;;;;;7.72;1.40;;;9.20;99.90;;;;;;5066815;28;20425;-68
2023/11/03 08:15:01;;;;;;;7.78;1.50;;;9.20;99.90;;;;;;5070326;28;20490;-69
2023/11/03 08:17:28;;;;;;;8.20;2.08;;;9.30;99.90;;;;;;5067212;28;20075;-69
2023/11/03 08:19:54;;;;;;;6.47;1.40;;;9.30;99.90;;;;;;5070293;28;20868;-69
2023/11/03 08:22:20;;;;;;;4.22;1.23;;;9.30;99.90;;;;;;5066562;28;20052;-69
2023/11/03 08:24:46;;;;;;;5.10;1.00;;;9.30;99.90;;;;;;5065477;28;20044;-69
2023/11/03 08:27:12;;;;;;;5.85;1.42;;;9.30;99.90;;;;;;5064998;28;20123;-69
2023/11/03 08:29:38;;;;;;;11.02;1.60;;;9.30;99.90;;;;;;5096865;28;20041;-69
2023/11/03 08:32:05;;;;;;;7.82;1.60;;;9.30;99.90;;;;;;5069303;28;20605;-68
2023/11/03 08:34:31;;;;;;;6.22;1.23;;;9.40;99.90;;;;;;5067427;28;20043;-68
2023/11/03 08:36:57;;;;;;;6.80;1.40;;;9.50;99.90;;;;;;5065975;28;20046;-67
2023/11/03 08:39:22;;;;;;;7.60;2.00;;;9.50;99.90;;;;;;5069921;28;20491;-68
2023/11/03 08:41:49;;;;;;;9.63;2.58;;;9.50;99.90;;;;;;5065884;28;20124;-68
2023/11/03 08:44:16;;;;;;;7.28;1.90;;;9.50;99.90;;;;;;5070604;28;20119;-68
2023/11/03 08:46:42;;;;;;;11.30;2.38;;;9.60;99.90;;;;;;5065606;28;20045;-68
2023/11/03 08:49:07;;;;;;;6.00;1.85;;;9.60;99.90;;;;;;5064654;28;20055;-68
2023/11/03 08:51:34;;;;;;;7.43;1.85;;;9.60;99.90;;;;;;5064803;28;20064;-68
2023/11/03 08:54:00;;;;;;;8.00;1.92;;;9.70;99.90;;;;;;5064078;28;20434;-68
2023/11/03 08:56:25;;;;;;;8.68;1.88;;;9.70;99.90;;;;;;5062970;28;20044;-68
2023/11/03 08:58:51;;;;;;;4.93;1.65;;;9.80;99.90;;;;;;5056730;28;20047;-68
2023/11/03 09:01:17;;;;;;;6.50;1.75;;;9.80;99.90;;;;;;5063421;28;20406;-68
2023/11/03 09:03:43;;;;;;;6.75;2.30;;;9.80;99.90;;;;;;5062929;28;20036;-68
2023/11/03 09:06:09;;;;;;;7.95;1.75;;;9.90;99.90;;;;;;5064779;28;20047;-68
2023/11/03 09:08:35;;;;;;;8.43;1.92;;;10.00;99.90;;;;;;5062258;28;20089;-68
2023/11/03 09:11:01;;;;;;;5.68;2.20;;;10.10;99.90;;;;;;5058002;28;20478;-68
2023/11/03 09:13:27;;;;;;;8.18;2.30;;;10.10;99.90;;;;;;5058081;28;20505;-68
2023/11/03 09:15:53;;;;;;;9.82;2.00;;;10.10;99.90;;;;;;5055730;28;20028;-69
2023/11/03 09:18:19;;;;;;;11.15;3.22;;;10.10;99.90;;;;;;5059735;28;20502;-69
2023/11/03 09:20:45;;;;;;;9.57;2.33;;;10.20;99.90;;;;;;5060043;28;20052;-69
2023/11/03 09:23:11;;;;;;;8.45;2.20;;;10.20;99.90;;;;;;5059115;28;20068;-68
2023/11/03 09:25:37;;;;;;;9.32;1.75;;;10.20;99.90;;;;;;5058588;28;20170;-68
2023/11/03 09:28:03;;;;;;;11.80;2.10;;;10.30;99.90;;;;;;5058059;28;20056;-68
2023/11/03 09:30:29;;;;;;;11.70;2.10;;;10.30;99.90;;;;;;5060766;28;20047;-69
2023/11/03 09:32:55;;;;;;;7.00;2.00;;;10.30;99.90;;;;;;5059973;28;20040;-68
2023/11/03 09:35:21;;;;;;;12.27;2.72;;;10.30;99.90;;;;;;5064032;28;20041;-68
2023/11/03 09:37:46;;;;;;;9.57;2.05;;;10.30;99.90;;;;;;5062241;28;20505;-68
2023/11/03 09:40:16;;;;;;;13.68;1.95;;;10.60;99.90;;;;;;5058813;28;20048;-68
2023/11/03 09:42:43;;;;;;;7.30;2.03;;;10.40;99.90;;;;;;5059775;28;20071;-68
2023/11/03 09:45:15;;;;;;;9.88;1.95;;;10.50;99.90;;;;;;5062894;28;20504;-68
2023/11/03 09:47:41;;;;;;;9.45;2.25;;;10.50;99.90;;;;;;5063701;28;20041;-68
2023/11/03 09:50:10;;;;;;;9.95;2.10;;;10.50;99.90;;;;;;5061763;28;20039;-68
2023/11/03 09:52:44;;;;;;;7.75;1.67;;;10.50;99.90;;;;;;5060421;28;20170;-69
2023/11/03 09:55:15;;;;;;;9.18;1.70;;;10.60;99.90;;;;;;5056407;28;20510;-68
2023/11/03 09:57:41;;;;;;;16.27;2.17;;;10.60;99.90;;;;;;5054372;28;20078;-68
2023/11/03 10:00:16;;;;;;;8.77;1.63;;;10.60;99.90;;;;;;5059785;28;20056;-68
2023/11/03 10:02:43;;;;;;;7.47;1.80;;;10.60;99.90;;;;;;5059944;28;20041;-68
2023/11/03 10:05:18;;;;;;;10.73;1.75;;;10.70;99.90;;;;;;5060940;28;20455;-68
2023/11/03 10:08:00;;;;;;;10.20;1.92;;;10.70;99.90;;;;;;5063801;28;20041;-68
2023/11/03 10:10:26;;;;;;;7.78;2.33;;;10.80;99.90;;;;;;5056103;28;20507;-68
2023/11/03 10:12:52;;;;;;;13.88;2.38;;;10.80;99.90;;;;;;5057552;28;20384;-68
2023/11/03 10:15:17;;;;;;;7.10;1.98;;;10.90;99.90;;;;;;5060514;28;20047;-68
2023/11/03 10:17:45;;;;;;;12.15;2.03;;;10.90;99.90;;;;;;5063515;28;20072;-68
2023/11/03 10:20:12;;;;;;;10.88;2.88;;;10.90;99.90;;;;;;5061293;28;20521;-68
2023/11/03 10:22:42;;;;;;;11.13;2.05;;;10.90;99.90;;;;;;5064036;28;20090;-68
2023/11/03 10:25:08;;;;;;;11.75;1.85;;;11.00;99.90;;;;;;5060962;28;20044;-68
2023/11/03 10:27:36;;;;;;;7.88;1.58;;;11.10;99.90;;;;;;5058064;28;20056;-68
2023/11/03 10:30:06;;;;;;;8.43;1.20;;;11.20;99.90;;;;;;5059488;28;20360;-68
2023/11/03 10:32:33;;;;;;;14.93;3.08;;;11.30;99.90;;;;;;5058917;28;20048;-68
2023/11/03 10:35:02;;;;;;;9.68;1.75;;;11.20;99.90;;;;;;5060559;28;20040;-68
2023/11/03 10:37:31;;;;;;;10.02;1.98;;;11.20;99.90;;;;;;5048340;28;20060;-69
2023/11/03 10:39:56;;;;;;;8.02;1.67;;;11.10;99.90;;;;;;5064661;28;20562;-69
2023/11/03 10:42:24;;;;;;;13.38;2.35;;;11.10;99.90;;;;;;5061314;28;20040;-68
2023/11/03 10:44:54;;;;;;;16.30;2.13;;;11.10;99.90;;;;;;5098061;28;20099;-68
2023/11/03 10:47:37;;;;;;;10.82;2.35;;;11.20;99.90;;;;;;5094590;28;20462;-68
2023/11/03 10:50:07;;;;;;;11.23;2.17;;;11.30;99.90;;;;;;5065023;28;20037;-68
2023/11/03 10:52:49;;;;;;;10.68;1.73;;;11.30;99.90;;;;;;5077621;28;20063;-68
2023/11/03 10:55:25;;;;;;;13.75;1.63;;;11.30;99.90;;;;;;5063078;28;20044;-68
2023/11/03 10:57:53;;;;;;;9.40;1.55;;;11.30;99.90;;;;;;5065822;28;20037;-68
2023/11/03 11:00:46;;;;;;;5.50;1.20;;;11.30;99.90;;;;;;5065146;28;20047;-68
2023/11/03 11:03:22;;;;;;;8.18;2.05;;;11.50;99.90;;;;;;5065527;28;20226;-68
2023/11/03 11:06:11;;;;;;;8.00;1.83;;;11.60;99.90;;;;;;5065060;28;20055;-68
2023/11/03 11:08:41;;;;;;;9.35;2.10;;;11.60;99.90;;;;;;5065609;28;20048;-68
2023/11/03 11:11:10;;;;;;;10.75;1.60;;;11.50;99.90;;;;;;5066323;28;20044;-68
2023/11/03 11:13:39;;;;;;;9.32;1.30;;;11.40;99.90;;;;;;5062744;28;20083;-68
2023/11/03 11:16:06;;;;;;;8.32;1.90;;;11.60;99.90;;;;;;5063044;28;20066;-68
2023/11/03 11:18:33;;;;;;;7.97;1.88;;;11.40;99.90;;;;;;5062604;28;20082;-68
2023/11/03 11:21:11;;;;;;;10.80;1.83;;;11.40;99.90;;;;;;5062591;28;20044;-68
2023/11/03 11:23:39;;;;;;;14.23;2.28;;;11.40;99.90;;;;;;5096279;28;20449;-68
2023/11/03 11:26:18;;;;;;;15.32;2.95;;;11.40;99.90;;;;;;5064691;28;20052;-68
2023/11/03 11:28:44;;;;;;;11.07;2.40;;;11.50;99.90;;;;;;5060512;28;20040;-68
2023/11/03 11:31:25;;;;;;;11.88;1.67;;;11.60;99.90;;;;;;5062602;28;20090;-68
2023/11/03 11:34:15;;;;;;;6.45;1.90;;;11.70;99.90;;;;;;5064556;28;20127;-68
2023/11/03 11:36:41;;;;;;;7.88;1.02;;;11.80;99.90;;;;;;5063007;28;20044;-68
2023/11/03 11:39:13;;;;;;;11.95;1.83;;;11.80;99.90;;;;;;5063211;28;20054;-68
2023/11/03 11:41:51;;;;;;;5.70;1.00;;;11.90;99.90;;;;;;5062820;28;20049;-68
2023/11/03 11:44:19;;;;;;;10.68;1.90;;;11.80;99.90;;;;;;5062511;28;20498;-68
2023/11/03 11:46:51;;;;;;;9.25;1.38;;;11.90;99.90;;;;;;5065413;28;20036;-68
2023/11/03 11:49:21;;;;;;;10.20;2.63;;;11.80;99.90;;;;;;5062231;28;20048;-68
2023/11/03 11:51:51;;;;;;;9.63;1.63;;;11.70;99.90;;;;;;5065175;28;20414;-68
2023/11/03 11:54:18;;;;;;;9.90;1.80;;;11.80;99.90;;;;;;5065253;28;20032;-68
2023/11/03 11:56:44;;;;;;;8.57;1.33;;;11.70;99.90;;;;;;5066503;28;20662;-69
2023/11/03 11:59:15;;;;;;;9.15;1.08;;;11.80;99.90;;;;;;5062319;28;20122;-68
2023/11/03 12:01:41;;;;;;;7.68;1.63;;;11.70;99.90;;;;;;5061496;28;20052;-68
2023/11/03 12:04:07;;;;;;;7.97;1.70;;;11.70;99.90;;;;;;5065638;28;20507;-68
2023/11/03 12:06:33;;;;;;;6.53;1.65;;;11.70;99.90;;;;;;5065928;28;20052;-68
2023/11/03 12:08:59;;;;;;;7.28;1.42;;;11.80;99.90;;;;;;5067016;28;20033;-68
2023/11/03 12:11:26;;;;;;;11.15;1.85;;;11.80;99.90;;;;;;5061152;28;20032;-68
2023/11/03 12:13:52;;;;;;;9.35;1.60;;;11.80;99.90;;;;;;5063185;28;20501;-68
2023/11/03 12:16:19;;;;;;;11.05;2.22;;;11.90;99.90;;;;;;5061293;28;20410;-68
2023/11/03 12:18:45;;;;;;;10.77;1.63;;;11.90;99.90;;;;;;5078853;28;20045;-68
2023/11/03 12:21:10;;;;;;;8.90;1.65;;;11.90;99.90;;;;;;5062574;28;20505;-68
2023/11/03 12:23:39;;;;;;;9.68;2.90;;;11.90;99.90;;;;;;5062460;28;20051;-68
2023/11/03 12:26:04;;;;;;;8.80;1.42;;;11.80;99.90;;;;;;5067112;28;20127;-68
2023/11/03 12:28:31;;;;;;;8.70;1.23;;;11.80;99.90;;;;;;5062042;28;20044;-68
2023/11/03 12:31:04;;;;;;;11.77;2.10;;;11.80;99.90;;;;;;5061630;28;20549;-68
2023/11/03 12:33:31;;;;;;;7.72;1.38;;;11.80;99.90;;;;;;5063019;28;20190;-68
2023/11/03 12:35:57;;;;;;;9.30;1.10;;;11.70;99.90;;;;;;5095195;28;20290;-68
2023/11/03 12:38:23;;;;;;;4.57;1.00;;;11.70;99.90;;;;;;5060946;28;20041;-68
2023/11/03 12:40:50;;;;;;;9.63;1.48;;;11.80;99.90;;;;;;5061339;28;20177;-68
2023/11/03 12:43:17;;;;;;;7.00;1.00;;;11.80;99.90;;;;;;5060830;28;20040;-68
2023/11/03 12:45:44;;;;;;;5.90;1.50;;;11.90;99.90;;;;;;5062391;28;20058;-68
2023/11/03 12:48:21;;;;;;;11.30;1.17;;;11.70;99.90;;;;;;5061760;28;20040;-68
2023/11/03 12:50:56;;;;;;;6.90;1.30;;;11.80;99.90;;;;;;5063430;28;20043;-68
2023/11/03 12:53:22;;;;;;;14.10;2.08;;;11.90;99.90;;;;;;5060737;28;20089;-68